Weather History for Thermopolis, WY

Change the Weather History Date:

Friday, October 19, 2012

  Actual Average (KWRL) Record (KWRL)
Temperature  
Mean Temperature 44 °F 44 °F  
Max Temperature 53 °F 59 °F 85 °F (2003)
Min Temperature 35 °F 30 °F 18 °F (1976)
Degree Days  
Heating Degree Days 21 21  
Month to date heating degree days 326  
Since 1 July heating degree days 583  
Cooling Degree Days 0 0  
Month to date cooling degree days 0  
Year to date cooling degree days 535  
Moisture  
Dew Point 19 °F    
Average Humidity 35    
Maximum Humidity 53    
Minimum Humidity 22    
Precipitation  
Precipitation 0.00 in 0.02 in 0.02 in (1965)
Month to date precipitation 0.51  
Year to date precipitation 6.81  
Sea Level Pressure  
Sea Level Pressure 30.08 in    
Wind  
Wind Speed 11 mph ()    
Max Wind Speed 37 mph    
Max Gust Speed 48 mph    
Visibility 10.0 miles    
Events      
T = Trace of Precipitation, MM = Missing Value Source: Averaged Metar Reports

Daily Weather History Graph

Daily Weather History Graph

Search for Another Location

Airport:

Trip Planner

Search our weather history database for the weather conditions in past years. The results will help you decide how hot, cold, wet, or windy it might be!

Date:

Astronomy

Oct. 19, 2012 Rise Set
Actual Time 7:32 AM MDT 6:22 PM MDT
Civil Twilight 7:03 AM MDT 6:51 PM MDT
Nautical Twilight 6:30 AM MDT 7:24 PM MDT
Astronomical Twilight 5:57 AM MDT 7:57 PM MDT
Moon 12:24 PM MDT (10/19) 9:58 PM MDT (10/19)
Length of Visible Light 11h 47m
Length of Day
10h 49m
Waxing Crescent, 24% of the Moon is Illuminated
Oct 19
Waxing Crescent
Oct 21
First Quarter
Oct 29
Full
Nov 6
Last Quarter
Nov 13
New

Hourly Weather History & Observations

Time (MDT) Temp. Windchill Dew Point Humidity Pressure Visibility Wind Dir Wind Speed Gust Speed Precip Events Conditions
12:35 AM 41.0 °F 35.2 °F 14.0 °F 33% 30.24 in 10.0 mi South 9.2 mph - N/A   Clear
12:55 AM 41.0 °F 36.4 °F 14.0 °F 33% 30.23 in 10.0 mi SSE 6.9 mph - N/A   Clear
1:15 AM 41.0 °F 38.0 °F 14.0 °F 33% 30.23 in 10.0 mi SSE 4.6 mph - N/A   Clear
1:35 AM 41.0 °F 39.0 °F 14.0 °F 33% 30.23 in 10.0 mi SSE 3.5 mph - N/A   Clear
1:55 AM 39.2 °F 35.0 °F 14.0 °F 36% 30.22 in 10.0 mi SSE 5.8 mph - N/A   Clear
2:15 AM 39.2 °F 34.2 °F 14.0 °F 36% 30.22 in 10.0 mi SSE 6.9 mph - N/A   Clear
2:35 AM 41.0 °F 36.4 °F 15.8 °F 36% 30.21 in 10.0 mi SSE 6.9 mph - N/A   Clear
3:15 AM 37.4 °F 32.1 °F 15.8 °F 41% 30.20 in 10.0 mi SSE 6.9 mph - N/A   Clear
3:55 AM 37.4 °F 30.3 °F 14.0 °F 38% 30.18 in 10.0 mi SSE 10.4 mph - N/A   Clear
4:15 AM 37.4 °F 29.3 °F 15.8 °F 41% 30.17 in 10.0 mi SSE 12.7 mph - N/A   Clear
4:35 AM 37.4 °F 30.3 °F 14.0 °F 38% 30.16 in 10.0 mi SE 10.4 mph - N/A   Clear
4:55 AM 37.4 °F 30.3 °F 14.0 °F 38% 30.16 in 10.0 mi SSE 10.4 mph - N/A   Clear
5:15 AM 37.4 °F 29.8 °F 14.0 °F 38% 30.14 in 10.0 mi SE 11.5 mph - N/A   Clear
5:35 AM 37.4 °F 29.8 °F 14.0 °F 38% 30.15 in 10.0 mi SE 11.5 mph - N/A   Clear
5:55 AM 37.4 °F 29.8 °F 14.0 °F 38% 30.15 in 10.0 mi SE 11.5 mph - N/A   Clear
6:15 AM 37.4 °F 29.8 °F 14.0 °F 38% 30.15 in 10.0 mi SE 11.5 mph - N/A   Clear
6:35 AM 37.4 °F 30.8 °F 14.0 °F 38% 30.14 in 10.0 mi SE 9.2 mph - N/A   Clear
6:55 AM 35.6 °F 29.2 °F 14.0 °F 41% 30.13 in 10.0 mi SSE 8.1 mph - N/A   Clear
7:15 AM 35.6 °F 28.0 °F 12.2 °F 38% 30.12 in 10.0 mi SE 10.4 mph - N/A   Clear
7:35 AM 35.6 °F 29.2 °F 12.2 °F 38% 30.12 in 10.0 mi SSE 8.1 mph - N/A   Clear
7:55 AM 35.6 °F 27.1 °F 12.2 °F 38% 30.12 in 10.0 mi SSE 12.7 mph - N/A   Clear
8:15 AM 35.6 °F 27.5 °F 14.0 °F 41% 30.11 in 10.0 mi SSE 11.5 mph - N/A   Clear
8:35 AM 35.6 °F 28.0 °F 14.0 °F 41% 30.10 in 10.0 mi SSE 10.4 mph - N/A   Clear
8:55 AM 35.6 °F 29.2 °F 12.2 °F 38% 30.10 in 10.0 mi SSE 8.1 mph - N/A   Clear
9:15 AM 35.6 °F 28.6 °F 12.2 °F 38% 30.10 in 10.0 mi SSE 9.2 mph - N/A   Clear
9:35 AM 35.6 °F 28.6 °F 14.0 °F 41% 30.10 in 10.0 mi SSE 9.2 mph - N/A   Clear
10:15 AM 42.8 °F 38.0 °F 17.6 °F 36% 30.09 in 10.0 mi SSE 8.1 mph 20.7 mph N/A   Clear
10:35 AM 42.8 °F 36.6 °F 17.6 °F 36% 30.10 in 10.0 mi SSW 11.5 mph 18.4 mph N/A   Clear
11:35 AM 50.0 °F - 17.6 °F 28% 30.08 in 10.0 mi SW 17.3 mph 20.7 mph N/A   Clear
11:55 AM 50.0 °F - 17.6 °F 28% 30.08 in 10.0 mi SW 13.8 mph 21.9 mph N/A   Clear
12:15 PM 46.4 °F 40.7 °F 17.6 °F 32% 30.08 in 10.0 mi WSW 12.7 mph 17.3 mph N/A   Clear
1:15 PM 50.0 °F - 17.6 °F 28% 30.06 in 10.0 mi SW 11.5 mph 21.9 mph N/A   Clear
1:35 PM 50.0 °F - 17.6 °F 28% 30.05 in 10.0 mi South 11.5 mph 23.0 mph N/A   Clear
1:55 PM 51.8 °F - 17.6 °F 26% 30.05 in 10.0 mi SSW 10.4 mph 18.4 mph N/A   Clear
2:15 PM 53.6 °F - 17.6 °F 24% 30.05 in 10.0 mi SSW 5.8 mph - N/A   Clear
2:35 PM 51.8 °F - 17.6 °F 26% 30.05 in 10.0 mi SSE 3.5 mph - N/A   Clear
3:15 PM 51.8 °F - 17.6 °F 26% 30.03 in 10.0 mi SSE 3.5 mph - N/A   Clear
3:35 PM 51.8 °F - 17.6 °F 26% 30.03 in 10.0 mi South 6.9 mph - N/A   Clear
3:55 PM 53.6 °F - 15.8 °F 22% 30.03 in 10.0 mi SSW 16.1 mph 21.9 mph N/A   Clear
4:15 PM 51.8 °F - 15.8 °F 24% 30.02 in 10.0 mi South 11.5 mph 20.7 mph N/A   Clear
4:35 PM 51.8 °F - 15.8 °F 24% 30.02 in 10.0 mi South 18.4 mph 23.0 mph N/A   Clear
4:55 PM 50.0 °F - 17.6 °F 28% 30.02 in 10.0 mi South 13.8 mph 21.9 mph N/A   Clear
5:15 PM 51.8 °F - 17.6 °F 26% 30.02 in 10.0 mi SSE 10.4 mph - N/A   Clear
5:35 PM 50.0 °F - 17.6 °F 28% 30.03 in 10.0 mi SSW 12.7 mph - N/A   Clear
5:55 PM 51.8 °F - 19.4 °F 28% 30.02 in 10.0 mi SW 15.0 mph 21.9 mph N/A   Clear
6:15 PM 51.8 °F - 21.2 °F 30% 30.02 in 10.0 mi SW 15.0 mph 28.8 mph N/A   Clear
6:35 PM 51.8 °F - 23.0 °F 33% 30.02 in 10.0 mi SW 13.8 mph 27.6 mph N/A   Clear
6:55 PM 51.8 °F - 24.8 °F 35% 30.01 in 10.0 mi WSW 26.5 mph 33.4 mph N/A   Clear
7:15 PM 53.6 °F - 26.6 °F 35% 30.01 in 10.0 mi SW 27.6 mph 40.3 mph N/A   Scattered Clouds
7:35 PM 53.6 °F - 26.6 °F 35% 30.01 in 10.0 mi SW 19.6 mph 39.1 mph N/A   Scattered Clouds
7:55 PM 53.6 °F - 26.6 °F 35% 30.00 in 10.0 mi SW 31.1 mph 44.9 mph N/A   Mostly Cloudy
8:15 PM 53.6 °F - 28.4 °F 38% 30.00 in 10.0 mi WSW 28.8 mph 36.8 mph N/A   Overcast
8:35 PM 51.8 °F - 26.6 °F 38% 30.01 in 10.0 mi SSW 18.4 mph 31.1 mph N/A   Mostly Cloudy
9:15 PM 50.0 °F - 28.4 °F 43% 29.98 in 10.0 mi SSW 36.8 mph 46.0 mph N/A   Scattered Clouds
9:55 PM 50.0 °F - 30.2 °F 47% 29.98 in 10.0 mi SW 34.5 mph 42.6 mph N/A   Scattered Clouds
10:15 PM 50.0 °F - 30.2 °F 47% 29.97 in 10.0 mi SW 35.7 mph 42.6 mph N/A   Scattered Clouds
10:35 PM 50.0 °F - 30.2 °F 47% 29.97 in 10.0 mi SW 35.7 mph 48.3 mph N/A   Clear
10:55 PM 50.0 °F - 28.4 °F 43% 29.96 in 10.0 mi SW 33.4 mph 47.2 mph N/A   Clear
11:15 PM 48.2 °F - 28.4 °F 46% 29.96 in 10.0 mi SW 27.6 mph 38.0 mph N/A   Clear
11:35 PM 48.2 °F - 30.2 °F 50% 29.96 in 10.0 mi SW 26.5 mph 36.8 mph N/A   Clear
11:55 PM 46.4 °F 37.4 °F 30.2 °F 53% 29.96 in 10.0 mi SW 28.8 mph 38.0 mph N/A   Clear